createdAt,value
2018-08-22T00:00:23.130Z,3.22
2018-08-22T00:02:51.438Z,2.83
2018-08-22T00:05:20.471Z,3.20
2018-08-22T00:07:47.954Z,2.95
2018-08-22T00:10:19.427Z,3.42
2018-08-22T00:12:46.788Z,3.45
2018-08-22T00:15:14.335Z,3.58
2018-08-22T00:17:45.730Z,4.22
2018-08-22T00:20:17.852Z,4.15
2018-08-22T00:22:45.159Z,3.37
2018-08-22T00:25:15.267Z,3.58
2018-08-22T00:27:42.918Z,4.87
2018-08-22T00:30:11.568Z,5.30
2018-08-22T00:32:39.190Z,3.70
2018-08-22T00:35:07.230Z,3.65
2018-08-22T00:37:34.549Z,3.77
2018-08-22T00:40:01.962Z,4.00
2018-08-22T00:42:30.558Z,5.30
2018-08-22T00:45:06.858Z,4.95
2018-08-22T00:47:34.213Z,4.33
2018-08-22T00:50:01.575Z,4.58
2018-08-22T00:52:29.670Z,5.22
2018-08-22T00:54:57.065Z,5.83
2018-08-22T00:57:24.388Z,5.62
2018-08-22T00:59:52.830Z,5.70
2018-08-22T01:02:20.242Z,4.75
2018-08-22T01:04:49.682Z,5.62
2018-08-22T01:07:18.427Z,4.78
2018-08-22T01:12:13.422Z,4.85
2018-08-22T01:14:41.795Z,4.17
2018-08-22T01:17:14.137Z,4.70
2018-08-22T01:19:41.416Z,5.10
2018-08-22T01:22:09.456Z,5.62
2018-08-22T01:24:42.586Z,5.00
2018-08-22T01:27:14.195Z,5.70
2018-08-22T01:29:41.487Z,4.45
2018-08-22T01:32:08.844Z,5.33
2018-08-22T01:34:36.926Z,5.75
2018-08-22T01:37:04.301Z,5.10
2018-08-22T01:39:32.233Z,6.08
2018-08-22T01:42:00.337Z,5.42
2018-08-22T01:44:27.664Z,3.98
2018-08-22T01:46:59.055Z,4.40
2018-08-22T01:49:26.394Z,5.08
2018-08-22T01:51:53.802Z,4.87
2018-08-22T01:54:21.314Z,4.90
2018-08-22T01:56:48.691Z,4.70
2018-08-22T01:59:16.937Z,5.72
2018-08-22T02:04:11.123Z,4.35
2018-08-22T02:06:38.446Z,5.28
2018-08-22T02:09:07.666Z,5.40
2018-08-22T02:11:36.333Z,6.05
2018-08-22T02:14:08.768Z,5.50
2018-08-22T02:16:36.554Z,4.85
2018-08-22T02:19:03.969Z,4.70
2018-08-22T02:21:31.375Z,4.75
2018-08-22T02:24:03.770Z,5.40
2018-08-22T02:26:32.342Z,5.97
2018-08-22T02:29:01.286Z,5.25
2018-08-22T02:31:33.555Z,4.92
2018-08-22T02:34:01.846Z,5.08
2018-08-22T02:36:30.294Z,5.50
2018-08-22T02:38:57.677Z,5.25
2018-08-22T02:41:25.427Z,5.22
2018-08-22T02:43:53.667Z,5.75
2018-08-22T02:46:21.071Z,5.17
2018-08-22T02:48:55.226Z,5.20
2018-08-22T02:51:22.662Z,5.42
2018-08-22T02:53:54.822Z,6.05
2018-08-22T02:56:22.687Z,5.00
2018-08-22T02:58:51.110Z,5.10
2018-08-22T03:01:18.573Z,4.80
2018-08-22T03:03:45.892Z,4.83
2018-08-22T03:06:13.231Z,4.65
2018-08-22T03:08:42.144Z,4.85
2018-08-22T03:11:09.909Z,4.65
2018-08-22T03:13:38.323Z,5.15
2018-08-22T03:16:07.045Z,4.70
2018-08-22T03:18:36.834Z,4.40
2018-08-22T03:21:04.855Z,4.95
2018-08-22T03:23:33.282Z,4.85
2018-08-22T03:26:00.702Z,4.70
2018-08-22T03:28:32.307Z,4.70
2018-08-22T03:31:00.488Z,4.30
2018-08-22T03:33:27.843Z,5.00
2018-08-22T03:35:55.621Z,4.62
2018-08-22T03:38:27.846Z,5.50
2018-08-22T03:40:55.613Z,4.47
2018-08-22T03:43:24.134Z,5.45
2018-08-22T03:45:55.338Z,4.47
2018-08-22T03:48:23.257Z,4.65
2018-08-22T03:50:51.207Z,5.20
2018-08-22T03:53:18.502Z,4.80
2018-08-22T03:55:46.151Z,5.50
2018-08-22T03:58:17.995Z,5.15
2018-08-22T04:00:45.837Z,4.72
2018-08-22T04:03:13.202Z,4.85
2018-08-22T04:05:40.582Z,4.40
2018-08-22T04:08:08.269Z,4.55
2018-08-22T04:10:35.619Z,4.95
2018-08-22T04:13:03.038Z,4.55
2018-08-22T04:15:30.901Z,4.65
2018-08-22T04:18:00.948Z,5.15
2018-08-22T04:20:34.101Z,4.80
2018-08-22T04:25:29.430Z,5.15
2018-08-22T04:27:57.019Z,4.95
2018-08-22T04:30:24.408Z,4.75
2018-08-22T04:32:51.738Z,5.65
2018-08-22T04:35:19.132Z,5.92
2018-08-22T04:37:46.486Z,6.08
2018-08-22T04:40:13.822Z,5.22
2018-08-22T04:45:08.371Z,4.95
2018-08-22T04:47:35.722Z,5.20
2018-08-22T04:50:03.486Z,5.90
2018-08-22T04:52:30.867Z,5.37
2018-08-22T04:54:59.447Z,4.75
2018-08-22T04:57:30.827Z,4.95
2018-08-22T05:00:02.383Z,5.95
2018-08-22T05:02:34.234Z,8.70
2018-08-22T05:05:02.922Z,6.22
2018-08-22T05:07:30.383Z,5.47
2018-08-22T05:10:01.882Z,5.03
2018-08-22T05:12:29.245Z,4.90
2018-08-22T05:14:57.385Z,5.20
2018-08-22T05:17:24.744Z,5.67
2018-08-22T05:19:52.143Z,6.00
2018-08-22T05:22:24.266Z,5.15
2018-08-22T05:24:52.193Z,5.70
2018-08-22T05:27:19.376Z,4.55
2018-08-22T05:29:46.687Z,4.90
2018-08-22T05:32:14.060Z,6.45
2018-08-22T05:34:41.532Z,5.35
2018-08-22T05:37:08.886Z,5.00
2018-08-22T05:39:36.323Z,4.90
2018-08-22T05:42:04.265Z,5.47
2018-08-22T05:44:31.785Z,5.72
2018-08-22T05:47:04.166Z,5.10
2018-08-22T05:49:32.386Z,4.78
2018-08-22T05:51:59.694Z,5.40
2018-08-22T05:54:27.090Z,5.42
2018-08-22T05:56:54.499Z,5.10
2018-08-22T05:59:26.379Z,5.40
2018-08-22T06:01:53.767Z,5.33
2018-08-22T06:04:21.276Z,4.58
2018-08-22T06:06:48.567Z,5.63
2018-08-22T06:09:16.060Z,5.53
2018-08-22T06:11:44.158Z,5.60
2018-08-22T06:14:11.924Z,5.50
2018-08-22T06:16:39.425Z,6.05
2018-08-22T06:19:07.123Z,6.80
2018-08-22T06:21:34.487Z,5.67
2018-08-22T06:24:06.828Z,5.03
2018-08-22T06:26:34.206Z,4.87
2018-08-22T06:29:01.577Z,5.00
2018-08-22T06:31:28.933Z,5.20
2018-08-22T06:33:56.281Z,5.13
2018-08-22T06:36:23.665Z,5.17
2018-08-22T06:38:50.966Z,5.13
2018-08-22T06:41:18.266Z,5.70
2018-08-22T06:43:45.535Z,5.17
2018-08-22T06:46:12.848Z,5.03
2018-08-22T06:48:40.126Z,5.40
2018-08-22T06:51:07.428Z,4.80
2018-08-22T06:53:34.755Z,5.50
2018-08-22T06:56:02.102Z,4.87
2018-08-22T06:58:29.414Z,4.10
2018-08-22T07:00:56.703Z,4.57
2018-08-22T07:03:23.998Z,4.37
2018-08-22T07:05:51.298Z,4.20
2018-08-22T07:08:18.617Z,4.00
2018-08-22T07:10:46.018Z,4.00
2018-08-22T07:13:13.309Z,3.90
2018-08-22T07:15:40.615Z,4.10
2018-08-22T07:18:07.915Z,4.57
2018-08-22T07:20:35.210Z,4.07
2018-08-22T07:23:02.509Z,3.93
2018-08-22T07:25:29.805Z,4.87
2018-08-22T07:27:57.120Z,4.40
2018-08-22T07:30:24.412Z,4.47
2018-08-22T07:32:51.668Z,4.67
2018-08-22T07:35:19.002Z,4.30
2018-08-22T07:37:46.284Z,4.20
2018-08-22T07:40:13.765Z,4.60
2018-08-22T07:42:41.043Z,5.20
2018-08-22T07:45:08.387Z,4.30
2018-08-22T07:47:35.638Z,4.13
2018-08-22T07:50:02.953Z,3.40
2018-08-22T07:52:30.439Z,4.00
2018-08-22T07:54:57.739Z,4.80
2018-08-22T07:57:25.070Z,4.37
2018-08-22T07:59:53.210Z,4.20
2018-08-22T08:02:20.470Z,4.10
2018-08-22T08:04:47.764Z,4.67
2018-08-22T08:07:15.677Z,4.57
2018-08-22T08:09:43.727Z,4.40
2018-08-22T08:12:10.990Z,4.40
2018-08-22T08:14:38.250Z,4.10
2018-08-22T08:17:05.534Z,4.90
2018-08-22T08:19:32.855Z,5.07
2018-08-22T08:22:00.208Z,5.27
2018-08-22T08:24:27.455Z,4.70
2018-08-22T08:26:54.745Z,5.33
2018-08-22T08:29:22.002Z,4.23
2018-08-22T08:31:49.312Z,4.40
2018-08-22T08:34:16.831Z,4.50
2018-08-22T08:36:44.158Z,4.80
2018-08-22T08:39:12.054Z,4.17
2018-08-22T08:41:39.513Z,4.37
2018-08-22T08:44:07.050Z,4.20
2018-08-22T08:46:34.389Z,4.30
2018-08-22T08:49:01.748Z,3.73
2018-08-22T08:51:29.075Z,4.03
2018-08-22T08:53:56.353Z,3.70
2018-08-22T08:56:23.645Z,3.20
2018-08-22T08:58:50.952Z,3.63
2018-08-22T09:01:18.418Z,2.93
2018-08-22T09:03:45.700Z,3.10
2018-08-22T09:06:13.054Z,3.30
2018-08-22T09:08:40.388Z,3.10
2018-08-22T09:11:07.731Z,3.17
2018-08-22T09:13:37.018Z,3.20
2018-08-22T09:16:04.310Z,3.20
2018-08-22T09:18:38.466Z,3.80
2018-08-22T09:21:05.897Z,3.40
2018-08-22T09:23:33.123Z,3.07
2018-08-22T09:26:00.431Z,4.17
2018-08-22T09:28:27.735Z,3.43
2018-08-22T09:30:55.042Z,3.20
2018-08-22T09:33:22.579Z,3.40
2018-08-22T09:35:49.879Z,3.40
2018-08-22T09:38:17.187Z,3.57
2018-08-22T09:40:44.507Z,3.60
2018-08-22T09:43:12.443Z,3.77
2018-08-22T09:45:39.802Z,3.67
2018-08-22T09:48:11.303Z,3.80
2018-08-22T09:50:38.747Z,3.23
2018-08-22T09:53:06.119Z,3.60
2018-08-22T09:55:33.470Z,2.83
2018-08-22T09:58:00.792Z,3.10
2018-08-22T10:00:33.491Z,3.37
2018-08-22T10:03:05.389Z,3.93
2018-08-22T10:05:32.771Z,3.20
2018-08-22T10:08:00.277Z,3.70
2018-08-22T10:10:27.627Z,3.60
2018-08-22T10:12:55.460Z,3.53
2018-08-22T10:15:22.970Z,3.53
2018-08-22T10:17:50.351Z,3.80
2018-08-22T10:20:17.755Z,3.40
2018-08-22T10:22:45.667Z,4.27
2018-08-22T10:25:13.066Z,3.57
2018-08-22T10:27:40.467Z,3.70
2018-08-22T10:30:14.387Z,3.77
2018-08-22T10:32:41.827Z,4.00
2018-08-22T10:35:09.185Z,4.37
2018-08-22T10:37:37.215Z,3.50
2018-08-22T10:40:04.623Z,4.30
2018-08-22T10:42:32.030Z,3.77
2018-08-22T10:45:03.862Z,4.10
2018-08-22T10:47:31.250Z,4.53
2018-08-22T10:49:58.902Z,3.90
2018-08-22T10:52:26.383Z,3.87
2018-08-22T10:54:53.825Z,3.87
2018-08-22T10:57:23.746Z,4.13
2018-08-22T10:59:51.176Z,4.73
2018-08-22T11:02:18.754Z,4.50
2018-08-22T11:04:46.119Z,4.60
2018-08-22T11:07:14.800Z,4.50
2018-08-22T11:09:42.212Z,4.10
2018-08-22T11:12:10.835Z,3.93
2018-08-22T11:14:43.517Z,4.20
2018-08-22T11:17:11.221Z,5.23
2018-08-22T11:19:38.655Z,4.73
2018-08-22T11:22:11.531Z,3.80
2018-08-22T11:24:45.267Z,5.17
2018-08-22T11:27:18.374Z,4.40
2018-08-22T11:29:52.583Z,5.10
2018-08-22T11:32:25.354Z,4.80
2018-08-22T11:34:52.625Z,4.27
2018-08-22T11:37:20.100Z,4.60
2018-08-22T11:39:48.655Z,4.37
2018-08-22T11:42:16.033Z,4.80
2018-08-22T11:44:43.366Z,4.53
2018-08-22T11:47:11.150Z,4.10
2018-08-22T11:49:38.448Z,4.53
2018-08-22T11:52:05.805Z,4.83
2018-08-22T11:54:33.311Z,4.80
2018-08-22T11:57:01.207Z,5.00
2018-08-22T11:59:28.614Z,4.33
2018-08-22T12:01:55.969Z,4.97
2018-08-22T12:04:23.227Z,4.27
2018-08-22T12:06:50.952Z,4.40
2018-08-22T12:09:18.335Z,5.10
2018-08-22T12:11:45.674Z,4.50
2018-08-22T12:14:12.953Z,4.80
2018-08-22T12:16:40.786Z,5.13
2018-08-22T12:19:08.727Z,4.90
2018-08-22T12:21:36.472Z,4.43
2018-08-22T12:24:04.190Z,4.60
2018-08-22T12:26:31.491Z,4.10
2018-08-22T12:28:58.823Z,4.30
2018-08-22T12:31:26.255Z,4.60
2018-08-22T12:33:53.544Z,4.77
2018-08-22T12:36:20.806Z,4.37
2018-08-22T12:38:48.138Z,4.83
2018-08-22T12:41:15.410Z,4.80
2018-08-22T12:43:42.770Z,4.70
2018-08-22T12:46:10.042Z,4.07
2018-08-22T12:48:37.592Z,4.73
2018-08-22T12:51:04.939Z,5.07
2018-08-22T12:53:32.233Z,4.80
2018-08-22T12:55:59.553Z,5.03
2018-08-22T12:58:26.873Z,4.47
2018-08-22T13:00:54.145Z,4.73
2018-08-22T13:03:21.462Z,5.07
2018-08-22T13:05:48.750Z,4.80
2018-08-22T13:08:16.007Z,4.80
2018-08-22T13:10:43.301Z,4.20
2018-08-22T13:13:10.584Z,4.60
2018-08-22T13:15:38.081Z,4.60
2018-08-22T13:18:05.364Z,4.80
2018-08-22T13:20:32.672Z,5.03
2018-08-22T13:22:59.921Z,4.40
2018-08-22T13:25:27.203Z,5.20
2018-08-22T13:27:54.494Z,4.23
2018-08-22T13:30:21.781Z,5.00
2018-08-22T13:32:49.084Z,4.80
2018-08-22T13:35:16.391Z,4.80
2018-08-22T13:37:43.690Z,4.80
2018-08-22T13:40:10.958Z,5.50
2018-08-22T13:42:38.250Z,4.63
2018-08-22T13:45:06.028Z,5.40
2018-08-22T13:47:33.335Z,3.77
2018-08-22T13:50:00.629Z,5.27
2018-08-22T13:52:27.923Z,4.90
2018-08-22T13:54:55.277Z,4.90
2018-08-22T13:57:22.630Z,4.80
2018-08-22T13:59:49.947Z,5.00
2018-08-22T14:02:17.279Z,4.40
2018-08-22T14:04:44.552Z,4.60
2018-08-22T14:07:11.817Z,4.87
2018-08-22T14:09:39.082Z,4.90
2018-08-22T14:12:06.473Z,5.27
2018-08-22T14:14:33.775Z,5.43
2018-08-22T14:17:01.065Z,5.23
2018-08-22T14:19:28.389Z,5.10
2018-08-22T14:21:55.804Z,5.13
2018-08-22T14:24:23.198Z,5.10
2018-08-22T14:26:50.489Z,5.00
2018-08-22T14:29:17.800Z,4.40
2018-08-22T14:31:45.513Z,4.93
2018-08-22T14:34:12.810Z,4.77
2018-08-22T14:36:40.108Z,4.63
2018-08-22T14:39:08.463Z,4.77
2018-08-22T14:41:35.740Z,5.00
2018-08-22T14:44:03.070Z,4.53
2018-08-22T14:46:30.358Z,4.83
2018-08-22T14:48:57.693Z,5.30
2018-08-22T14:51:24.971Z,4.77
2018-08-22T14:53:52.299Z,5.03
2018-08-22T14:56:19.759Z,5.40
2018-08-22T14:58:47.129Z,5.10
2018-08-22T15:01:14.410Z,5.07
2018-08-22T15:03:41.726Z,5.00
2018-08-22T15:06:08.989Z,5.53
2018-08-22T15:08:36.423Z,5.43
2018-08-22T15:11:03.882Z,5.93
2018-08-22T15:13:31.147Z,6.03
2018-08-22T15:15:58.439Z,5.47
2018-08-22T15:18:25.713Z,5.40
2018-08-22T15:20:53.035Z,5.90
2018-08-22T15:23:20.282Z,5.40
2018-08-22T15:25:47.793Z,5.60
2018-08-22T15:28:15.083Z,6.00
2018-08-22T15:30:42.603Z,5.00
2018-08-22T15:33:09.874Z,5.43
2018-08-22T15:35:37.183Z,5.77
2018-08-22T15:38:04.660Z,6.13
2018-08-22T15:40:31.922Z,5.60
2018-08-22T15:42:59.186Z,5.73
2018-08-22T15:45:26.574Z,5.17
2018-08-22T15:47:53.867Z,5.73
2018-08-22T15:50:21.173Z,5.47
2018-08-22T15:52:48.490Z,5.43
2018-08-22T15:55:16.439Z,5.63
2018-08-22T15:57:54.783Z,5.50
2018-08-22T16:00:40.535Z,5.50
2018-08-22T16:03:08.847Z,5.27
2018-08-22T16:05:37.050Z,4.83
2018-08-22T16:08:04.757Z,5.07
2018-08-22T16:10:32.160Z,5.90
2018-08-22T16:12:59.562Z,4.90
2018-08-22T16:15:27.580Z,5.70
2018-08-22T16:17:55.894Z,5.10
2018-08-22T16:20:24.933Z,5.83
2018-08-22T16:22:52.532Z,5.10
2018-08-22T16:25:23.273Z,5.43
2018-08-22T16:27:50.746Z,4.90
2018-08-22T16:30:18.219Z,4.77
2018-08-22T16:32:45.513Z,4.53
2018-08-22T16:35:12.823Z,5.00
2018-08-22T16:37:47.150Z,4.90
2018-08-22T16:40:14.541Z,4.90
2018-08-22T16:42:41.866Z,5.37
2018-08-22T16:45:09.162Z,4.30
2018-08-22T16:47:37.270Z,4.50
2018-08-22T16:50:06.102Z,4.30
2018-08-22T16:52:33.706Z,4.30
2018-08-22T16:55:06.442Z,4.70
2018-08-22T16:57:33.738Z,4.67
2018-08-22T17:00:01.059Z,4.67
2018-08-22T17:02:28.342Z,4.70
2018-08-22T17:04:56.130Z,5.00
2018-08-22T17:07:23.467Z,5.60
2018-08-22T17:09:50.946Z,5.00
2018-08-22T17:12:18.338Z,5.30
2018-08-22T17:14:45.630Z,4.90
2018-08-22T17:17:13.049Z,4.17
2018-08-22T17:19:40.400Z,4.20
2018-08-22T17:22:07.777Z,5.00
2018-08-22T17:24:35.109Z,5.07
2018-08-22T17:27:03.409Z,5.73
2018-08-22T17:29:34.658Z,4.90
2018-08-22T17:32:05.447Z,5.23
2018-08-22T17:34:33.628Z,5.40
2018-08-22T17:37:07.514Z,5.00
2018-08-22T17:39:34.961Z,5.00
2018-08-22T17:42:02.930Z,5.20
2018-08-22T17:44:30.924Z,5.23
2018-08-22T17:46:58.538Z,5.60
2018-08-22T17:49:30.446Z,5.10
2018-08-22T17:51:59.422Z,4.80
2018-08-22T17:54:27.129Z,5.30
2018-08-22T17:57:00.144Z,5.50
2018-08-22T17:59:27.515Z,5.60
2018-08-22T18:01:54.915Z,4.83
2018-08-22T18:04:22.954Z,6.00
2018-08-22T18:06:50.423Z,5.67
2018-08-22T18:09:17.796Z,4.83
2018-08-22T18:11:45.201Z,6.27
2018-08-22T18:14:17.428Z,6.17
2018-08-22T18:16:44.904Z,6.00
2018-08-22T18:19:12.289Z,6.20
2018-08-22T18:21:46.846Z,6.10
2018-08-22T18:24:18.058Z,7.03
2018-08-22T18:26:46.183Z,7.60
2018-08-22T18:29:13.637Z,7.43
2018-08-22T18:31:41.089Z,7.30
2018-08-22T18:34:08.497Z,7.10
2018-08-22T18:36:35.785Z,6.57
2018-08-22T18:39:05.960Z,7.77
2018-08-22T18:41:33.356Z,6.30
2018-08-22T18:44:01.167Z,7.17
2018-08-22T18:46:28.545Z,9.17
2018-08-22T18:48:56.268Z,6.80
2018-08-22T18:51:24.190Z,8.47
2018-08-22T18:53:51.772Z,7.60
2018-08-22T18:56:21.297Z,8.00
2018-08-22T18:58:48.795Z,7.63
2018-08-22T19:01:16.233Z,8.30
2018-08-22T19:03:43.608Z,7.70
2018-08-22T19:06:11.107Z,6.90
2018-08-22T19:08:39.368Z,7.63
2018-08-22T19:11:07.293Z,7.70
2018-08-22T19:13:34.997Z,6.87
2018-08-22T19:16:04.138Z,7.47
2018-08-22T19:18:32.106Z,7.80
2018-08-22T19:21:02.211Z,7.77
2018-08-22T19:23:29.939Z,8.10
2018-08-22T19:25:58.332Z,8.10
2018-08-22T19:28:25.952Z,8.47
2018-08-22T19:30:53.388Z,8.70
2018-08-22T19:33:22.210Z,7.50
2018-08-22T19:35:49.874Z,7.17
2018-08-22T19:38:19.932Z,8.30
2018-08-22T19:40:47.874Z,8.77
2018-08-22T19:43:15.379Z,8.07
2018-08-22T19:45:42.831Z,8.97
2018-08-22T19:48:10.519Z,9.77
2018-08-22T19:50:38.008Z,8.90
2018-08-22T19:53:05.502Z,9.30
2018-08-22T19:55:33.528Z,9.20
2018-08-22T19:58:00.994Z,9.77
2018-08-22T20:00:28.486Z,10.03
2018-08-22T20:02:56.004Z,10.60
2018-08-22T20:05:23.463Z,9.70
2018-08-22T20:07:50.939Z,9.27
2018-08-22T20:10:21.085Z,10.27
2018-08-22T20:12:53.430Z,10.17
2018-08-22T20:15:21.130Z,9.00
2018-08-22T20:17:50.012Z,9.77
2018-08-22T20:20:18.116Z,10.50
2018-08-22T20:22:50.607Z,10.30
2018-08-22T20:25:18.024Z,10.07
2018-08-22T20:27:45.390Z,9.13
2018-08-22T20:30:15.123Z,10.87
2018-08-22T20:32:47.926Z,10.13
2018-08-22T20:35:19.641Z,10.20
2018-08-22T20:37:47.924Z,11.70
2018-08-22T20:40:15.525Z,11.77
2018-08-22T20:42:42.987Z,10.90
2018-08-22T20:45:14.658Z,11.53
2018-08-22T20:47:42.999Z,11.40
2018-08-22T20:50:16.232Z,10.83
2018-08-22T20:52:47.988Z,11.67
2018-08-22T20:55:15.795Z,11.60
2018-08-22T20:57:43.174Z,11.40
2018-08-22T21:00:10.835Z,10.93
2018-08-22T21:02:38.297Z,11.27
2018-08-22T21:05:06.231Z,12.33
2018-08-22T21:07:37.981Z,13.00
2018-08-22T21:10:05.583Z,13.57
2018-08-22T21:12:33.197Z,12.40
2018-08-22T21:15:01.243Z,12.43
2018-08-22T21:17:28.761Z,13.47
2018-08-22T21:20:00.570Z,12.97
2018-08-22T21:25:10.023Z,14.73
2018-08-22T21:27:38.976Z,13.70
2018-08-22T21:30:06.283Z,13.70
2018-08-22T21:32:33.713Z,16.43
2018-08-22T21:35:02.267Z,13.93
2018-08-22T21:37:30.944Z,14.83
2018-08-22T21:39:58.380Z,13.43
2018-08-22T21:44:54.931Z,12.77
2018-08-22T21:47:22.850Z,13.93
2018-08-22T21:49:50.233Z,12.63
2018-08-22T21:52:17.822Z,16.03
2018-08-22T21:54:46.100Z,13.93
2018-08-22T21:57:14.137Z,14.40
2018-08-22T21:59:42.348Z,14.70
2018-08-22T22:02:10.764Z,15.07
2018-08-22T22:04:39.687Z,15.67
2018-08-22T22:07:08.229Z,16.50
2018-08-22T22:09:37.160Z,18.03
2018-08-22T22:12:09.672Z,17.43
2018-08-22T22:14:37.991Z,18.30
2018-08-22T22:17:06.040Z,17.97
2018-08-22T22:19:36.245Z,18.60
2018-08-22T22:22:04.302Z,18.23
2018-08-22T22:24:31.739Z,18.50
2018-08-22T22:26:59.459Z,19.40
2018-08-22T22:29:32.460Z,22.30
2018-08-22T22:32:04.581Z,22.17
2018-08-22T22:34:32.748Z,21.00
2018-08-22T22:37:00.654Z,21.63
2018-08-22T22:39:34.270Z,21.17
2018-08-22T22:42:02.799Z,22.17
2018-08-22T22:44:30.138Z,22.90
2018-08-22T22:46:57.566Z,22.90
2018-08-22T22:49:25.241Z,24.60
2018-08-22T22:51:56.741Z,24.60
2018-08-22T22:54:29.677Z,23.97
2018-08-22T22:56:57.075Z,23.90
2018-08-22T22:59:24.920Z,22.70
2018-08-22T23:01:52.642Z,26.60
2018-08-22T23:04:25.248Z,23.33
2018-08-22T23:06:54.251Z,25.80
2018-08-22T23:09:21.728Z,26.10
2018-08-22T23:11:49.094Z,27.40
2018-08-22T23:14:18.412Z,29.70
2018-08-22T23:16:45.859Z,26.93
2018-08-22T23:19:13.219Z,27.43
2018-08-22T23:21:40.590Z,27.73
2018-08-22T23:24:24.243Z,28.80
2018-08-22T23:26:51.661Z,33.10
2018-08-22T23:29:18.960Z,32.40
2018-08-22T23:31:50.571Z,30.47
2018-08-22T23:34:18.118Z,37.83
2018-08-22T23:36:45.526Z,31.70
2018-08-22T23:39:13.213Z,36.40
2018-08-22T23:41:41.126Z,33.93
2018-08-22T23:44:08.553Z,33.30
2018-08-22T23:46:35.976Z,34.97
2018-08-22T23:49:04.948Z,35.90
2018-08-22T23:51:33.111Z,34.83
2018-08-22T23:54:01.699Z,33.57
2018-08-22T23:56:31.271Z,32.37
2018-08-22T23:58:59.136Z,35.80
